Time;durP1;ratioP1;P1;durP2;ratioP2;P2;SDS_P1;SDS_P2;PMS_P1;PMS_P2;Temp;Humidity;BMP_temperature;BMP_pressure;BME280_temperature;BME280_humidity;BME280_pressure;Samples;Min_cycle;Max_cycle;Signal;HPM_P1;HPM_P2
2022/11/05 00:09:32;;;;;;;14.50;11.00;;;6.60;96.30;;;;;;4992503;28;20400;-78
2022/11/05 00:17:38;;;;;;;15.63;11.60;;;6.60;96.30;;;;;;4991787;28;20951;-80
2022/11/05 00:20:06;;;;;;;11.83;10.63;;;6.60;96.30;;;;;;4992028;28;20416;-79
2022/11/05 00:25:17;;;;;;;13.47;10.07;;;6.60;96.30;;;;;;4992213;28;20458;-81
2022/11/05 00:27:48;;;;;;;13.20;10.20;;;6.60;96.30;;;;;;4991828;28;20417;-78
2022/11/05 00:30:17;;;;;;;11.53;9.80;;;6.60;96.30;;;;;;4995028;28;20437;-80
2022/11/05 00:32:44;;;;;;;12.60;9.80;;;6.60;96.30;;;;;;4995384;28;20440;-80
2022/11/05 00:35:09;;;;;;;12.07;10.03;;;6.60;96.30;;;;;;4995339;28;20417;-79
2022/11/05 00:37:35;;;;;;;11.33;9.60;;;6.60;96.30;;;;;;4994759;28;20916;-78
2022/11/05 00:40:02;;;;;;;11.00;9.60;;;6.60;96.30;;;;;;4995302;28;20277;-79
2022/11/05 00:45:11;;;;;;;11.00;9.90;;;6.60;96.30;;;;;;4995358;28;20502;-79
2022/11/05 00:50:22;;;;;;;14.93;9.80;;;6.60;96.30;;;;;;4995364;28;20188;-79
2022/11/05 00:52:55;;;;;;;10.70;8.90;;;6.60;96.30;;;;;;4995007;28;20416;-78
2022/11/05 00:55:34;;;;;;;12.83;8.33;;;6.60;96.30;;;;;;4994984;28;20419;-80
2022/11/05 00:58:02;;;;;;;18.47;9.87;;;6.60;96.30;;;;;;4993206;28;20451;-78
2022/11/05 05:00:10;;;;;;;13.70;9.80;;;6.60;96.30;;;;;;6067693;23;20635;31
2022/11/05 05:02:36;;;;;;;15.57;10.60;;;6.60;96.30;;;;;;4928973;29;20459;-81
2022/11/05 05:05:02;;;;;;;13.23;10.27;;;6.60;96.30;;;;;;4934756;29;20466;-81
2022/11/05 05:07:28;;;;;;;12.20;9.90;;;6.60;96.30;;;;;;4933053;29;20703;-80
2022/11/05 05:09:53;;;;;;;14.13;10.27;;;6.60;96.30;;;;;;4933689;29;20455;-81
2022/11/05 05:12:20;;;;;;;16.00;12.00;;;6.60;96.30;;;;;;4933442;29;20278;-79
2022/11/05 05:14:47;;;;;;;18.00;11.40;;;6.60;96.30;;;;;;4933053;29;20179;-79
2022/11/05 05:17:13;;;;;;;11.70;8.70;;;6.60;96.30;;;;;;4934217;29;20423;-79
2022/11/05 05:24:58;;;;;;;9.60;7.60;;;6.70;96.30;;;;;;5054530;23;20490;-77
2022/11/05 05:27:28;;;;;;;9.60;7.93;;;6.60;96.30;;;;;;4952384;28;20422;-78
2022/11/05 05:29:57;;;;;;;15.73;8.43;;;6.60;96.30;;;;;;4952493;29;20178;-78
2022/11/05 05:32:23;;;;;;;8.80;7.90;;;6.60;96.30;;;;;;4951537;28;20958;-78
2022/11/05 05:34:49;;;;;;;12.60;8.40;;;6.60;96.30;;;;;;4951867;29;20411;-78
2022/11/05 05:37:14;;;;;;;13.00;10.10;;;6.60;96.30;;;;;;4952616;29;20429;-81
2022/11/05 05:39:40;;;;;;;11.00;9.50;;;6.60;96.30;;;;;;4953051;28;20179;-82
2022/11/05 05:42:05;;;;;;;13.17;10.20;;;6.60;96.30;;;;;;4953040;28;20195;-79
2022/11/05 05:44:31;;;;;;;11.33;8.37;;;6.60;96.30;;;;;;4952903;28;20175;-79
2022/11/05 05:46:56;;;;;;;14.13;10.90;;;6.60;96.30;;;;;;4952350;28;20250;-79
2022/11/05 05:49:22;;;;;;;11.77;9.97;;;6.60;96.30;;;;;;4953012;28;20182;-79
2022/11/05 05:51:48;;;;;;;19.57;11.70;;;6.50;96.30;;;;;;4953004;28;20197;-80
2022/11/05 05:54:14;;;;;;;13.83;10.70;;;6.50;96.30;;;;;;4951407;29;20186;-79
2022/11/05 05:56:43;;;;;;;15.63;11.40;;;6.50;96.30;;;;;;4952366;28;20442;-80
2022/11/05 05:59:08;;;;;;;14.23;10.27;;;6.50;96.30;;;;;;4952739;28;20178;-80
2022/11/05 06:01:34;;;;;;;16.63;11.13;;;6.60;96.30;;;;;;4951691;29;20932;-78
2022/11/05 06:03:59;;;;;;;17.83;10.97;;;6.60;96.30;;;;;;4952725;28;20174;-81
2022/11/05 06:06:25;;;;;;;16.13;10.90;;;6.50;96.30;;;;;;4951079;29;20213;-81
2022/11/05 06:08:50;;;;;;;20.47;10.97;;;6.50;96.30;;;;;;4952005;28;20178;-82
2022/11/05 06:11:16;;;;;;;17.00;9.57;;;6.50;96.30;;;;;;4951211;28;20199;-80
2022/11/05 06:13:42;;;;;;;13.07;10.63;;;6.50;96.30;;;;;;4950568;28;20187;-80
2022/11/05 06:16:08;;;;;;;16.80;10.33;;;6.50;96.30;;;;;;4951063;29;20281;-82
2022/11/05 06:18:35;;;;;;;12.20;9.83;;;6.50;96.30;;;;;;4951716;28;20179;-80
2022/11/05 06:21:09;;;;;;;13.67;10.40;;;6.50;96.30;;;;;;4950981;28;20441;-81
2022/11/05 06:23:36;;;;;;;19.13;10.50;;;6.60;96.30;;;;;;4952289;28;20466;-80
2022/11/05 06:26:04;;;;;;;15.30;10.50;;;6.60;96.30;;;;;;4951531;28;20488;-79
2022/11/05 06:28:30;;;;;;;14.03;10.40;;;6.60;96.30;;;;;;4951827;28;20406;-82
2022/11/05 06:30:56;;;;;;;15.17;9.10;;;6.60;96.30;;;;;;4950840;29;20871;-83
2022/11/05 06:33:22;;;;;;;26.40;10.53;;;6.60;96.30;;;;;;4950832;29;20430;-82
2022/11/05 06:35:48;;;;;;;17.90;10.50;;;6.60;96.30;;;;;;4952151;28;20423;-83
2022/11/05 06:38:13;;;;;;;17.23;11.00;;;6.50;96.30;;;;;;4950494;29;20481;-79
2022/11/05 06:40:40;;;;;;;14.30;10.67;;;6.60;96.30;;;;;;4952020;28;20238;-81
2022/11/05 06:43:06;;;;;;;22.30;11.10;;;6.60;96.30;;;;;;4951836;28;20187;-80
2022/11/05 06:45:31;;;;;;;17.97;10.00;;;6.60;96.30;;;;;;4952137;28;20472;-78
2022/11/05 06:47:57;;;;;;;20.73;10.43;;;6.60;96.30;;;;;;4951409;29;20262;-79
2022/11/05 06:50:25;;;;;;;16.23;11.10;;;6.60;96.30;;;;;;4950553;28;20217;-78
2022/11/05 06:52:58;;;;;;;21.03;11.10;;;6.60;96.30;;;;;;4952387;28;20505;-78
2022/11/05 06:55:25;;;;;;;22.20;13.10;;;6.70;96.30;;;;;;4951914;28;20906;-79
2022/11/05 06:57:50;;;;;;;16.07;12.17;;;6.70;96.30;;;;;;4950123;29;20438;-80
2022/11/05 07:00:17;;;;;;;19.63;11.83;;;6.60;96.30;;;;;;4951842;28;20918;-79
2022/11/05 07:02:43;;;;;;;19.53;12.30;;;6.60;96.30;;;;;;4950432;29;20187;-81
2022/11/05 07:05:11;;;;;;;18.07;13.03;;;6.60;96.30;;;;;;4950351;29;20480;-78
2022/11/05 07:07:38;;;;;;;16.43;12.60;;;6.60;96.30;;;;;;4951008;28;20182;-80
2022/11/05 07:10:05;;;;;;;16.80;11.70;;;6.60;96.30;;;;;;4914234;28;20461;-80
2022/11/05 07:12:31;;;;;;;14.93;12.23;;;6.60;96.30;;;;;;4954265;28;20442;-80
2022/11/05 07:14:56;;;;;;;18.97;13.67;;;6.70;96.30;;;;;;4953354;29;20456;-78
2022/11/05 07:17:22;;;;;;;16.30;12.73;;;6.60;96.30;;;;;;4951876;29;20662;-79
2022/11/05 07:19:48;;;;;;;28.57;14.13;;;6.60;96.30;;;;;;4953379;29;20535;-79
2022/11/05 07:22:13;;;;;;;21.50;12.10;;;6.60;96.30;;;;;;4952291;28;20286;-82
2022/11/05 07:24:39;;;;;;;19.63;13.00;;;6.60;96.30;;;;;;4952187;28;20191;-79
2022/11/05 07:27:04;;;;;;;18.87;12.77;;;6.70;96.30;;;;;;4952965;29;20614;-80
2022/11/05 07:29:30;;;;;;;20.73;12.30;;;6.70;96.30;;;;;;4951429;29;20197;-79
2022/11/05 07:31:55;;;;;;;19.47;12.27;;;6.70;96.30;;;;;;4952067;28;20206;-81
2022/11/05 07:34:21;;;;;;;18.43;12.87;;;6.80;96.30;;;;;;4954350;29;20171;-80
2022/11/05 07:36:47;;;;;;;16.90;12.20;;;6.80;96.30;;;;;;4953464;28;20201;-79
2022/11/05 07:39:12;;;;;;;21.60;12.70;;;6.90;96.30;;;;;;4956403;28;20178;-80
2022/11/05 07:41:38;;;;;;;16.37;12.20;;;7.00;96.30;;;;;;4958126;29;20205;-82
2022/11/05 07:44:03;;;;;;;14.03;10.80;;;7.10;96.30;;;;;;4957304;29;20190;-81
2022/11/05 07:46:29;;;;;;;15.63;11.00;;;7.10;96.30;;;;;;4958937;29;20209;-81
2022/11/05 07:48:55;;;;;;;15.70;11.27;;;7.20;96.30;;;;;;4957880;29;20219;-81
2022/11/05 07:51:21;;;;;;;14.50;12.17;;;7.20;96.30;;;;;;4957513;29;20450;-81
2022/11/05 07:53:47;;;;;;;16.53;10.63;;;7.30;96.30;;;;;;4957801;29;20191;-81
2022/11/05 07:56:13;;;;;;;14.03;10.83;;;7.40;96.30;;;;;;4957170;28;20183;-81
2022/11/05 07:58:39;;;;;;;13.57;10.50;;;7.40;96.30;;;;;;4957990;29;20497;-81
2022/11/05 08:01:05;;;;;;;14.60;9.37;;;7.50;96.30;;;;;;4959004;29;20537;-81
2022/11/05 08:03:32;;;;;;;14.63;10.73;;;7.50;96.30;;;;;;4958791;28;20182;-81
2022/11/05 08:05:57;;;;;;;13.17;9.93;;;7.60;96.30;;;;;;4957976;29;20462;-81
2022/11/05 08:08:23;;;;;;;13.63;10.27;;;7.60;96.30;;;;;;4957323;29;20506;-81
2022/11/05 08:10:49;;;;;;;14.90;10.50;;;7.70;96.30;;;;;;4956630;28;20631;-81
2022/11/05 08:13:15;;;;;;;21.73;10.60;;;7.70;96.30;;;;;;4956970;29;20623;-80
2022/11/05 08:15:42;;;;;;;16.43;9.90;;;7.80;96.30;;;;;;4956249;28;20239;-80
2022/11/05 08:18:11;;;;;;;14.50;9.60;;;8.00;96.30;;;;;;4956690;28;20209;-79
2022/11/05 08:20:37;;;;;;;15.83;9.50;;;8.00;96.30;;;;;;4957345;28;20566;-79
2022/11/05 08:23:03;;;;;;;15.07;9.40;;;7.90;96.30;;;;;;4957434;29;20418;-79
2022/11/05 08:25:29;;;;;;;12.93;10.37;;;7.90;96.30;;;;;;4972474;28;20462;-79
2022/11/05 08:28:03;;;;;;;18.03;9.93;;;7.90;96.30;;;;;;4979101;28;20422;-79
2022/11/05 08:30:29;;;;;;;12.13;9.43;;;8.00;96.30;;;;;;4980472;28;20194;-80
2022/11/05 08:33:00;;;;;;;15.53;8.87;;;8.20;96.30;;;;;;4981972;28;20454;-80
2022/11/05 08:35:27;;;;;;;19.30;9.07;;;8.50;96.30;;;;;;4957065;29;20481;-78
2022/11/05 08:37:57;;;;;;;12.83;8.03;;;8.60;96.30;;;;;;4955748;28;20434;-79
2022/11/05 08:40:22;;;;;;;13.03;8.40;;;8.60;96.30;;;;;;4950516;29;20430;-79
2022/11/05 08:42:47;;;;;;;12.50;8.50;;;8.70;96.30;;;;;;4957737;29;20949;-79
2022/11/05 08:45:13;;;;;;;15.63;8.37;;;8.60;96.30;;;;;;4956170;29;20218;-78
2022/11/05 08:47:38;;;;;;;10.97;8.33;;;8.60;96.30;;;;;;4956549;29;20179;-77
2022/11/05 08:50:04;;;;;;;14.60;8.57;;;8.80;96.30;;;;;;4956159;28;20186;-78
2022/11/05 08:52:31;;;;;;;15.63;9.50;;;8.90;96.30;;;;;;4955346;29;20198;-79
2022/11/05 08:54:56;;;;;;;12.97;7.60;;;9.10;96.30;;;;;;4955694;29;20422;-78
2022/11/05 08:57:22;;;;;;;15.57;7.53;;;9.00;96.30;;;;;;4956340;28;20419;-78
2022/11/05 08:59:47;;;;;;;16.03;6.97;;;8.90;96.30;;;;;;4955708;28;20266;-78
2022/11/05 09:02:13;;;;;;;17.30;7.10;;;8.80;96.30;;;;;;4956591;28;20190;-78
2022/11/05 09:04:38;;;;;;;10.97;8.27;;;8.70;96.30;;;;;;4956353;28;20183;-78
2022/11/05 09:07:04;;;;;;;11.47;7.30;;;8.60;96.30;;;;;;4955789;29;20281;-77
2022/11/05 09:09:29;;;;;;;8.60;6.70;;;8.50;96.30;;;;;;4954880;28;20581;-77
2022/11/05 09:11:55;;;;;;;13.87;7.87;;;8.50;96.30;;;;;;4956160;28;20194;-74
2022/11/05 09:14:20;;;;;;;15.20;7.97;;;8.40;96.30;;;;;;4956373;28;20171;-75
2022/11/05 09:16:46;;;;;;;12.30;6.50;;;8.20;96.30;;;;;;4955796;28;20250;-75
2022/11/05 09:19:12;;;;;;;15.87;7.33;;;8.10;96.30;;;;;;4954931;29;20183;-75
2022/11/05 09:21:37;;;;;;;10.37;6.73;;;8.10;96.30;;;;;;4955801;28;20434;-78
2022/11/05 09:24:03;;;;;;;11.70;6.57;;;8.20;96.30;;;;;;4955859;29;20790;-76
2022/11/05 09:26:29;;;;;;;14.17;5.47;;;8.30;96.30;;;;;;4954624;28;20218;-75
2022/11/05 09:28:54;;;;;;;10.40;6.00;;;8.30;96.30;;;;;;4954872;29;20205;-76
2022/11/05 09:31:20;;;;;;;12.83;6.63;;;8.40;96.30;;;;;;4955662;28;20281;-74
2022/11/05 09:33:45;;;;;;;18.00;5.60;;;8.60;96.30;;;;;;4955745;28;20171;-74
2022/11/05 09:36:11;;;;;;;14.00;4.83;;;8.70;96.30;;;;;;4953327;28;20225;-74
2022/11/05 09:38:36;;;;;;;7.10;4.20;;;8.70;96.30;;;;;;4954063;28;20259;-75
2022/11/05 09:41:13;;;;;;;12.73;5.47;;;8.70;96.30;;;;;;4954771;28;20202;-74
2022/11/05 09:43:43;;;;;;;11.70;4.77;;;8.70;96.30;;;;;;4955652;28;20217;-75
2022/11/05 09:46:42;;;;;;;7.00;4.80;;;8.70;96.30;;;;;;4955330;29;20458;-76
2022/11/05 09:49:34;;;;;;;8.43;4.83;;;8.80;96.30;;;;;;4955282;29;20426;-74
2022/11/05 09:52:01;;;;;;;11.00;5.37;;;9.00;96.30;;;;;;4955270;28;20427;-74
2022/11/05 09:54:30;;;;;;;14.20;5.47;;;9.10;96.30;;;;;;4955357;29;20419;-75
2022/11/05 09:56:58;;;;;;;9.80;5.13;;;9.20;96.30;;;;;;4954660;29;20426;-75
2022/11/05 09:59:35;;;;;;;10.60;4.63;;;9.10;96.30;;;;;;4955330;28;20461;-75
2022/11/05 10:02:16;;;;;;;16.00;5.57;;;9.20;96.30;;;;;;4955208;28;20433;-75
2022/11/05 10:04:45;;;;;;;7.03;4.93;;;9.10;96.30;;;;;;4955171;28;20415;-74
2022/11/05 10:07:15;;;;;;;13.50;5.50;;;9.20;96.30;;;;;;4954609;28;20458;-75
2022/11/05 10:10:03;;;;;;;10.53;5.10;;;9.30;96.30;;;;;;4955113;28;20472;-75
2022/11/05 10:12:43;;;;;;;13.63;5.23;;;9.60;96.30;;;;;;4955011;28;20473;-75
2022/11/05 10:15:17;;;;;;;9.13;4.40;;;9.60;96.30;;;;;;4955072;28;20470;-75
2022/11/05 10:17:48;;;;;;;7.83;4.70;;;9.60;96.30;;;;;;4953610;28;20432;-75
2022/11/05 10:20:19;;;;;;;10.60;4.63;;;9.60;96.30;;;;;;4954668;28;20772;-74
2022/11/05 10:22:45;;;;;;;13.27;5.00;;;9.60;96.30;;;;;;4953626;28;20423;-74
2022/11/05 10:25:17;;;;;;;9.93;5.83;;;9.50;96.30;;;;;;4954500;29;20481;-75
2022/11/05 10:27:48;;;;;;;9.27;5.77;;;9.70;96.30;;;;;;4954244;29;20446;-75
2022/11/05 10:30:14;;;;;;;13.20;4.87;;;9.80;96.30;;;;;;4953412;28;20462;-77
2022/11/05 10:32:42;;;;;;;9.17;5.07;;;10.00;96.30;;;;;;4954736;29;20438;-75
2022/11/05 10:35:13;;;;;;;10.40;4.90;;;10.70;96.30;;;;;;4954525;29;20217;-75
2022/11/05 10:37:40;;;;;;;7.83;3.93;;;10.90;96.30;;;;;;4954136;28;20391;-75
2022/11/05 10:40:22;;;;;;;9.43;3.43;;;10.80;96.30;;;;;;4954840;28;20410;-76
2022/11/05 10:43:01;;;;;;;18.47;3.57;;;10.40;96.30;;;;;;4954636;29;20430;-75
2022/11/05 10:45:42;;;;;;;7.60;2.60;;;10.10;96.30;;;;;;4954473;29;20505;-75
2022/11/05 10:48:42;;;;;;;17.43;2.93;;;9.90;96.30;;;;;;4952555;29;20800;-74
2022/11/05 10:51:08;;;;;;;7.50;3.13;;;9.60;96.30;;;;;;4954366;28;20434;-74
2022/11/05 10:53:37;;;;;;;15.30;4.70;;;9.30;96.30;;;;;;4954403;29;20411;-74
2022/11/05 10:56:23;;;;;;;8.70;3.80;;;9.20;96.30;;;;;;4953976;28;20234;-76
2022/11/05 10:58:56;;;;;;;14.57;4.40;;;9.10;96.30;;;;;;4953464;29;20422;-76
2022/11/05 11:01:23;;;;;;;8.73;3.73;;;9.10;96.30;;;;;;4946789;28;20508;-75
2022/11/05 11:03:51;;;;;;;9.63;3.60;;;9.00;96.30;;;;;;4953998;29;20421;-74
2022/11/05 11:06:23;;;;;;;12.30;4.00;;;9.00;96.30;;;;;;4954044;29;20529;-75
2022/11/05 11:08:50;;;;;;;14.13;4.63;;;9.20;96.30;;;;;;4953662;28;20411;-75
2022/11/05 11:11:33;;;;;;;13.83;3.93;;;9.30;96.30;;;;;;4946583;29;20447;-76
2022/11/05 11:14:05;;;;;;;7.37;3.40;;;9.50;96.30;;;;;;4953714;28;20489;-74
2022/11/05 11:16:43;;;;;;;17.10;4.10;;;9.30;96.30;;;;;;4954006;28;20897;-75
2022/11/05 11:19:27;;;;;;;7.17;3.53;;;9.00;96.30;;;;;;4954024;28;20772;-76
2022/11/05 11:22:17;;;;;;;16.70;4.60;;;8.90;96.30;;;;;;4953885;29;20483;-76
2022/11/05 11:24:52;;;;;;;9.13;3.10;;;9.00;96.30;;;;;;4952659;28;20509;-77
2022/11/05 11:27:22;;;;;;;12.90;3.60;;;9.00;96.30;;;;;;4952925;28;20442;-75
2022/11/05 11:29:57;;;;;;;7.03;2.90;;;9.00;96.30;;;;;;4953946;28;20398;-76
2022/11/05 11:32:26;;;;;;;7.67;2.80;;;8.90;96.30;;;;;;4952544;29;20454;-76
2022/11/05 11:34:53;;;;;;;11.40;2.90;;;8.90;96.30;;;;;;4952115;29;20834;-77
2022/11/05 11:37:28;;;;;;;7.87;2.80;;;8.90;96.30;;;;;;4952767;29;20403;-77
2022/11/05 11:40:02;;;;;;;11.50;3.60;;;9.00;96.30;;;;;;4953212;29;20895;-77
2022/11/05 11:42:29;;;;;;;9.23;2.10;;;9.00;96.30;;;;;;4952959;29;20938;-75
2022/11/05 11:44:58;;;;;;;5.37;2.13;;;9.00;96.30;;;;;;4951809;28;20986;-75
2022/11/05 11:47:26;;;;;;;16.70;2.90;;;9.40;96.30;;;;;;4952744;28;20435;-75
2022/11/05 11:49:54;;;;;;;11.60;2.73;;;10.10;96.30;;;;;;4955502;29;20416;-75
2022/11/05 12:28:34;;;;;;;6.47;2.03;;;12.90;96.30;;;;;;5581551;23;20485;-75
2022/11/05 12:40:25;;;;;;;;;;;;;;;;;;;;;
2022/11/05 12:50:27;;;;;;;;;;;;;;;;;;;;;
2022/11/05 15:04:32;;;;;;;7.23;2.10;;;8.10;96.30;;;;;;4970509;28;20472;-76
2022/11/05 15:07:01;;;;;;;6.57;2.20;;;7.90;96.30;;;;;;4971622;28;20465;-76
2022/11/05 15:09:45;;;;;;;8.87;3.30;;;7.80;96.30;;;;;;4973479;28;20513;-76
2022/11/05 15:12:14;;;;;;;5.80;3.00;;;7.70;96.30;;;;;;4954195;28;20430;-76
2022/11/05 15:14:53;;;;;;;9.17;2.80;;;7.70;96.30;;;;;;4964632;28;20429;-76
2022/11/05 15:17:28;;;;;;;7.93;2.63;;;7.50;96.30;;;;;;4971677;28;20436;-76
2022/11/05 15:20:01;;;;;;;6.07;2.77;;;7.60;96.30;;;;;;4973227;28;20463;-78
2022/11/05 15:22:34;;;;;;;10.90;4.43;;;7.70;96.30;;;;;;4972080;28;20941;-76
2022/11/05 15:25:00;;;;;;;7.50;2.30;;;7.70;96.30;;;;;;4972074;28;20422;-76
2022/11/05 15:27:33;;;;;;;12.90;4.90;;;7.70;96.30;;;;;;4971429;28;20477;-76
2022/11/05 15:30:13;;;;;;;9.07;5.13;;;7.50;96.30;;;;;;4972172;28;20185;-77
2022/11/05 15:32:39;;;;;;;16.73;8.23;;;7.40;96.30;;;;;;4973417;28;20402;-76
2022/11/05 15:35:27;;;;;;;9.63;4.00;;;7.20;96.30;;;;;;4973286;28;20420;-76
2022/11/05 15:37:55;;;;;;;8.60;3.17;;;7.00;96.30;;;;;;4972748;28;20693;-76
2022/11/05 15:40:26;;;;;;;4.87;2.50;;;6.70;96.30;;;;;;4973111;28;20448;-76
2022/11/05 15:43:16;;;;;;;16.43;8.20;;;6.60;96.30;;;;;;4971924;28;20472;-76
2022/11/05 15:45:42;;;;;;;14.30;6.67;;;6.40;96.30;;;;;;4971920;28;20469;-75
2022/11/05 15:48:13;;;;;;;9.03;2.90;;;6.20;96.30;;;;;;4972623;28;20502;-76
2022/11/05 15:50:39;;;;;;;12.70;4.70;;;6.10;96.30;;;;;;4973031;28;20455;-76
2022/11/05 15:53:15;;;;;;;35.30;22.30;;;5.90;96.30;;;;;;4973161;28;20898;-76
2022/11/05 15:55:53;;;;;;;30.00;19.43;;;5.80;96.30;;;;;;4973131;28;20485;-76
2022/11/05 15:58:19;;;;;;;22.23;11.27;;;5.70;96.30;;;;;;4972920;28;20461;-76
2022/11/05 16:00:48;;;;;;;12.60;6.17;;;5.60;96.30;;;;;;4976789;28;20433;-76
2022/11/05 16:03:20;;;;;;;9.57;3.90;;;5.40;96.30;;;;;;4976734;28;20212;-76
2022/11/05 16:05:47;;;;;;;12.73;4.03;;;5.30;96.30;;;;;;4976685;28;20456;-76
2022/11/05 16:08:21;;;;;;;10.23;3.43;;;5.10;96.30;;;;;;4976178;28;20418;-76
2022/11/05 16:10:53;;;;;;;10.63;3.90;;;4.90;96.30;;;;;;4976594;28;20926;-76
2022/11/05 16:13:36;;;;;;;12.13;4.63;;;4.90;96.30;;;;;;4975459;28;20509;-77
2022/11/05 16:16:21;;;;;;;5.83;3.10;;;4.80;96.30;;;;;;4976677;28;20908;-76
2022/11/05 16:18:46;;;;;;;7.10;2.67;;;4.90;96.30;;;;;;4976116;28;20406;-78
2022/11/05 16:21:17;;;;;;;10.90;3.30;;;5.00;96.30;;;;;;4975061;28;20788;-76
2022/11/05 16:23:57;;;;;;;11.47;3.80;;;5.00;96.30;;;;;;4976473;28;20179;-76
2022/11/05 16:26:32;;;;;;;15.13;3.27;;;4.90;96.30;;;;;;4976145;28;20443;-75
2022/11/05 16:29:00;;;;;;;17.67;4.57;;;4.90;96.30;;;;;;4975975;28;20481;-75
2022/11/05 16:31:28;;;;;;;7.20;2.93;;;5.00;96.30;;;;;;4976112;28;20520;-76
2022/11/05 16:33:55;;;;;;;11.00;2.70;;;5.10;96.30;;;;;;4976179;28;20417;-77
2022/11/05 16:36:21;;;;;;;9.43;2.50;;;5.30;96.30;;;;;;4976141;28;20421;-76
2022/11/05 16:38:47;;;;;;;9.53;2.93;;;5.30;96.30;;;;;;4975691;28;20422;-76
2022/11/05 16:41:14;;;;;;;10.53;2.20;;;5.40;96.30;;;;;;4969162;28;20454;-76
2022/11/05 16:43:49;;;;;;;22.00;11.80;;;5.40;96.30;;;;;;4965299;28;20467;-76
2022/11/05 16:46:14;;;;;;;14.53;6.40;;;5.40;96.30;;;;;;4955909;28;20481;-76
2022/11/05 16:48:40;;;;;;;10.27;4.50;;;5.50;96.30;;;;;;4955135;28;20446;-77
2022/11/05 16:51:09;;;;;;;10.37;4.37;;;5.40;96.30;;;;;;4955668;29;20194;-76
2022/11/05 16:53:35;;;;;;;16.77;8.43;;;5.40;96.30;;;;;;4954812;29;20722;-76
2022/11/05 16:56:02;;;;;;;22.70;12.67;;;5.40;96.30;;;;;;4955929;28;20518;-77
2022/11/05 16:58:28;;;;;;;24.80;11.83;;;5.20;96.30;;;;;;4955454;28;20215;-76
2022/11/05 17:01:10;;;;;;;23.60;10.20;;;5.10;96.30;;;;;;4955634;28;20926;-76
2022/11/05 17:03:35;;;;;;;23.43;14.20;;;5.00;96.30;;;;;;4955800;28;20460;-75
2022/11/05 17:06:01;;;;;;;17.83;10.30;;;5.00;96.30;;;;;;4955806;29;21045;-76
2022/11/05 17:08:27;;;;;;;24.50;8.90;;;4.90;96.30;;;;;;4954896;29;20226;-76
2022/11/05 17:10:52;;;;;;;15.77;9.47;;;4.80;96.30;;;;;;4954814;28;20345;-76
2022/11/05 17:13:18;;;;;;;18.43;9.17;;;4.70;96.30;;;;;;4955694;28;20211;-76
2022/11/05 17:15:46;;;;;;;19.20;9.50;;;4.60;96.30;;;;;;4955537;28;20179;-76
2022/11/05 17:18:13;;;;;;;100.73;10.07;;;4.50;96.30;;;;;;4954487;29;20789;-76
2022/11/05 17:20:44;;;;;;;65.67;9.60;;;4.30;96.30;;;;;;4954688;28;20522;-84
2022/11/05 17:23:12;;;;;;;89.10;9.43;;;4.30;96.30;;;;;;4954253;28;20485;-76
2022/11/05 17:25:45;;;;;;;84.63;11.40;;;4.20;96.30;;;;;;4955367;28;20458;-76
2022/11/05 17:28:11;;;;;;;103.27;9.90;;;4.20;96.30;;;;;;4953591;29;20810;-77
2022/11/05 17:30:37;;;;;;;156.97;10.20;;;4.20;96.30;;;;;;4955229;29;20427;-76
2022/11/05 17:33:03;;;;;;;219.20;10.67;;;4.10;96.30;;;;;;4954919;28;20229;-77
2022/11/05 17:35:29;;;;;;;214.07;11.70;;;4.10;96.30;;;;;;4953837;28;20434;-79
2022/11/05 17:37:55;;;;;;;195.47;11.93;;;4.10;96.30;;;;;;4954709;28;20926;-76
2022/11/05 17:40:22;;;;;;;221.90;13.00;;;4.00;96.30;;;;;;4953759;29;20462;-76
2022/11/05 17:42:49;;;;;;;131.30;10.63;;;3.90;96.30;;;;;;4954945;28;20179;-76
2022/11/05 17:45:14;;;;;;;147.67;11.03;;;3.80;96.30;;;;;;4954696;28;20418;-77
2022/11/05 17:47:40;;;;;;;71.47;10.83;;;3.70;96.30;;;;;;4953146;28;20426;-76
2022/11/05 17:50:08;;;;;;;110.37;10.17;;;3.60;96.30;;;;;;4956260;28;20202;-77
2022/11/05 18:21:49;;;;;;;96.73;10.77;;;3.40;96.30;;;;;;4953042;28;20866;-78
2022/11/05 18:24:15;;;;;;;55.70;9.77;;;3.40;96.30;;;;;;4945097;29;20436;-78
2022/11/05 18:26:41;;;;;;;37.37;10.27;;;3.40;96.30;;;;;;4942310;29;20207;-78
2022/11/05 18:29:06;;;;;;;88.20;9.80;;;3.40;96.30;;;;;;4940499;28;20178;-78
2022/11/05 18:31:32;;;;;;;43.53;6.87;;;3.30;96.30;;;;;;4939549;28;20217;-78
2022/11/05 18:33:58;;;;;;;61.47;6.27;;;3.30;96.30;;;;;;4933203;29;20179;-78
2022/11/05 18:36:29;;;;;;;142.87;6.93;;;3.30;96.30;;;;;;4933016;29;20655;-78
2022/11/05 18:39:00;;;;;;;306.73;9.30;;;3.30;96.30;;;;;;4946756;29;20495;-78
2022/11/05 18:41:26;;;;;;;323.77;10.00;;;3.30;96.30;;;;;;4941039;28;20430;-78
2022/11/05 18:43:51;;;;;;;224.47;8.57;;;3.20;96.30;;;;;;4946337;28;20410;-78
2022/11/05 18:46:17;;;;;;;271.53;9.50;;;3.20;96.30;;;;;;4942419;29;20443;-78
2022/11/05 18:48:43;;;;;;;366.27;12.20;;;3.10;96.30;;;;;;4941289;29;20558;-78
2022/11/05 18:51:11;;;;;;;255.37;9.80;;;2.90;96.30;;;;;;4949749;29;20285;-78
2022/11/05 18:53:37;;;;;;;546.50;15.83;;;2.90;96.30;;;;;;4951744;29;20199;-78
2022/11/05 18:56:12;;;;;;;446.30;14.30;;;2.90;96.30;;;;;;4953502;28;20418;-78
2022/11/05 18:58:37;;;;;;;219.67;10.70;;;2.80;96.30;;;;;;4943845;29;20418;-78
2022/11/05 19:01:11;;;;;;;327.27;11.60;;;2.70;96.30;;;;;;4937717;29;20514;-77
2022/11/05 19:03:36;;;;;;;274.77;13.67;;;2.70;96.30;;;;;;4952951;29;20552;-78
2022/11/05 19:06:03;;;;;;;339.23;11.93;;;2.60;96.30;;;;;;4955652;28;20457;-77
2022/11/05 19:08:33;;;;;;;246.87;10.60;;;2.50;96.30;;;;;;4957050;28;20186;-78
2022/11/05 19:10:59;;;;;;;262.17;11.43;;;2.50;96.30;;;;;;4957457;29;20433;-77
2022/11/05 19:13:25;;;;;;;251.13;13.33;;;2.40;96.30;;;;;;4955464;29;20423;-78
2022/11/05 19:15:51;;;;;;;187.93;9.80;;;2.30;96.30;;;;;;4956915;28;20438;-80
2022/11/05 19:18:16;;;;;;;139.70;8.10;;;2.30;96.30;;;;;;4954556;29;20422;-79
2022/11/05 19:20:42;;;;;;;252.83;9.60;;;2.40;96.30;;;;;;4946039;28;20258;-79
2022/11/05 19:23:08;;;;;;;187.17;9.10;;;2.40;96.30;;;;;;4934801;29;20265;-79
2022/11/05 19:25:35;;;;;;;178.37;9.03;;;2.40;96.30;;;;;;4933230;29;20617;-79
2022/11/05 19:28:01;;;;;;;199.27;8.53;;;2.40;96.30;;;;;;4934175;29;20259;-78
2022/11/05 19:30:27;;;;;;;130.63;6.47;;;2.40;96.30;;;;;;4933263;29;20419;-76
2022/11/05 19:32:52;;;;;;;209.87;8.33;;;2.40;96.30;;;;;;4934367;29;20574;-77
2022/11/05 19:35:18;;;;;;;149.73;5.67;;;2.30;96.30;;;;;;4937094;29;20190;-76
2022/11/05 19:37:44;;;;;;;171.93;6.57;;;2.30;96.30;;;;;;4937791;29;20175;-77
2022/11/05 19:40:10;;;;;;;317.73;8.10;;;2.30;96.30;;;;;;4937196;29;20171;-78
2022/11/05 19:42:36;;;;;;;156.73;6.67;;;2.20;96.30;;;;;;4937066;29;20227;-77
2022/11/05 19:45:01;;;;;;;196.33;6.53;;;2.10;96.30;;;;;;4942415;29;20532;-78
2022/11/05 19:47:27;;;;;;;305.97;10.03;;;2.10;96.30;;;;;;4954915;29;20203;-78
2022/11/05 19:49:52;;;;;;;116.03;5.97;;;2.10;96.30;;;;;;4956826;28;20673;-77
2022/11/05 19:52:18;;;;;;;214.57;9.50;;;2.10;96.30;;;;;;4955465;29;20195;-80
2022/11/05 19:54:44;;;;;;;114.10;5.83;;;2.00;96.30;;;;;;4955541;29;20185;-78
2022/11/05 19:57:11;;;;;;;312.63;12.83;;;2.00;96.30;;;;;;4954950;28;20803;-78
2022/11/05 19:59:37;;;;;;;309.77;9.63;;;2.00;96.30;;;;;;4955445;29;20922;-80
2022/11/05 20:02:03;;;;;;;329.33;10.00;;;1.90;96.30;;;;;;4955429;28;20450;-79
2022/11/05 20:04:28;;;;;;;290.67;7.93;;;1.90;96.30;;;;;;4956657;28;20242;-78
2022/11/05 20:06:54;;;;;;;288.37;8.67;;;1.80;96.30;;;;;;4952829;29;21125;-79
2022/11/05 20:09:19;;;;;;;342.90;10.00;;;1.90;96.30;;;;;;4954994;28;20639;-79
2022/11/05 20:11:47;;;;;;;306.37;19.13;;;1.80;96.30;;;;;;4956471;28;20195;-80
2022/11/05 20:14:12;;;;;;;297.73;10.10;;;1.80;96.30;;;;;;4956370;28;20653;-79
2022/11/05 20:16:39;;;;;;;354.00;9.53;;;1.80;96.30;;;;;;4955951;28;20422;-82
2022/11/05 20:19:07;;;;;;;321.97;9.27;;;1.70;96.30;;;;;;4956130;28;20222;-78
2022/11/05 20:21:33;;;;;;;271.70;8.83;;;1.70;96.30;;;;;;4956012;28;21099;-79
2022/11/05 20:23:58;;;;;;;205.53;6.33;;;1.70;96.30;;;;;;4956297;28;20418;-79
2022/11/05 20:26:25;;;;;;;356.47;9.23;;;1.70;96.30;;;;;;4956094;28;20848;-79
2022/11/05 20:28:50;;;;;;;297.33;9.20;;;1.70;96.30;;;;;;4955697;29;20175;-79
2022/11/05 20:31:17;;;;;;;383.33;10.87;;;1.70;96.30;;;;;;4956183;28;20505;-79
2022/11/05 20:33:43;;;;;;;260.53;9.00;;;1.60;96.30;;;;;;4955643;28;20179;-79
2022/11/05 20:36:13;;;;;;;502.00;13.70;;;1.60;96.30;;;;;;4955687;28;20415;-79
2022/11/05 20:38:40;;;;;;;516.50;14.90;;;1.50;96.30;;;;;;4954290;28;20440;-78
2022/11/05 20:41:11;;;;;;;403.43;11.20;;;1.50;96.30;;;;;;4955526;28;20465;-80
2022/11/05 20:43:37;;;;;;;330.00;11.33;;;1.50;96.30;;;;;;4954835;28;20501;-80
2022/11/05 20:46:03;;;;;;;329.17;10.90;;;1.50;96.30;;;;;;4953421;28;20465;-80
2022/11/05 20:48:31;;;;;;;461.77;14.90;;;1.50;96.30;;;;;;4955509;28;20417;-80
2022/11/05 20:50:56;;;;;;;508.50;16.60;;;1.50;96.30;;;;;;4955816;28;20521;-80
2022/11/05 20:53:22;;;;;;;507.77;15.57;;;1.50;96.30;;;;;;4954758;29;20513;-80